sensor_id;sensor_type;location;lat;lon;timestamp;pressure;altitude;pressure_sealevel;temperature;humidity
16255;BME280;8235;52.198;9.904;2023-04-15T00:00:48;100117.09;;;7.56;83.93
16255;BME280;8235;52.198;9.904;2023-04-15T00:03:15;100118.91;;;7.55;84.57
16255;BME280;8235;52.198;9.904;2023-04-15T00:05:44;100110.28;;;7.52;84.04
16255;BME280;8235;52.198;9.904;2023-04-15T00:08:10;100105.09;;;7.50;85.01
16255;BME280;8235;52.198;9.904;2023-04-15T00:10:37;100110.56;;;7.47;84.91
16255;BME280;8235;52.198;9.904;2023-04-15T00:13:04;100101.00;;;7.45;85.39
16255;BME280;8235;52.198;9.904;2023-04-15T00:15:30;100100.31;;;7.41;85.12
16255;BME280;8235;52.198;9.904;2023-04-15T00:17:57;100101.34;;;7.39;84.89
16255;BME280;8235;52.198;9.904;2023-04-15T00:20:23;100100.50;;;7.38;85.65
16255;BME280;8235;52.198;9.904;2023-04-15T00:22:51;100095.28;;;7.37;85.06
16255;BME280;8235;52.198;9.904;2023-04-15T00:25:18;100100.66;;;7.35;85.30
16255;BME280;8235;52.198;9.904;2023-04-15T00:27:45;100097.28;;;7.33;86.04
16255;BME280;8235;52.198;9.904;2023-04-15T00:30:11;100097.38;;;7.31;86.28
16255;BME280;8235;52.198;9.904;2023-04-15T00:32:38;100090.44;;;7.29;86.35
16255;BME280;8235;52.198;9.904;2023-04-15T00:35:06;100096.69;;;7.28;85.75
16255;BME280;8235;52.198;9.904;2023-04-15T00:37:33;100095.94;;;7.26;86.36
16255;BME280;8235;52.198;9.904;2023-04-15T00:40:02;100093.44;;;7.23;86.35
16255;BME280;8235;52.198;9.904;2023-04-15T00:42:30;100091.66;;;7.23;86.23
16255;BME280;8235;52.198;9.904;2023-04-15T00:44:57;100090.81;;;7.23;86.44
16255;BME280;8235;52.198;9.904;2023-04-15T00:47:23;100079.44;;;7.21;86.67
16255;BME280;8235;52.198;9.904;2023-04-15T00:49:51;100081.22;;;7.20;86.72
16255;BME280;8235;52.198;9.904;2023-04-15T00:52:17;100083.88;;;7.20;86.97
16255;BME280;8235;52.198;9.904;2023-04-15T00:54:44;100094.47;;;7.20;87.29
16255;BME280;8235;52.198;9.904;2023-04-15T00:57:12;100083.13;;;7.18;87.62
16255;BME280;8235;52.198;9.904;2023-04-15T00:59:38;100084.19;;;7.16;87.53
16255;BME280;8235;52.198;9.904;2023-04-15T01:02:05;100087.75;;;7.15;87.63
16255;BME280;8235;52.198;9.904;2023-04-15T01:04:32;100082.47;;;7.15;88.25
16255;BME280;8235;52.198;9.904;2023-04-15T01:06:58;100079.81;;;7.15;87.94
16255;BME280;8235;52.198;9.904;2023-04-15T01:09:25;100080.75;;;7.14;88.15
16255;BME280;8235;52.198;9.904;2023-04-15T01:11:52;100074.63;;;7.13;88.31
16255;BME280;8235;52.198;9.904;2023-04-15T01:14:20;100077.34;;;7.12;88.44
16255;BME280;8235;52.198;9.904;2023-04-15T01:16:46;100079.13;;;7.11;88.57
16255;BME280;8235;52.198;9.904;2023-04-15T01:19:15;100072.13;;;7.10;88.07
16255;BME280;8235;52.198;9.904;2023-04-15T01:21:43;100080.16;;;7.09;88.54
16255;BME280;8235;52.198;9.904;2023-04-15T01:24:09;100075.72;;;7.09;89.01
16255;BME280;8235;52.198;9.904;2023-04-15T01:26:38;100070.44;;;7.09;88.63
16255;BME280;8235;52.198;9.904;2023-04-15T01:29:05;100071.38;;;7.08;88.64
16255;BME280;8235;52.198;9.904;2023-04-15T01:31:32;100072.22;;;7.09;89.09
16255;BME280;8235;52.198;9.904;2023-04-15T01:33:59;100071.38;;;7.08;89.18
16255;BME280;8235;52.198;9.904;2023-04-15T01:36:26;100068.72;;;7.08;88.90
16255;BME280;8235;52.198;9.904;2023-04-15T01:38:54;100071.38;;;7.08;89.20
16255;BME280;8235;52.198;9.904;2023-04-15T01:41:21;100073.16;;;7.08;89.65
16255;BME280;8235;52.198;9.904;2023-04-15T01:43:51;100071.38;;;7.08;89.03
16255;BME280;8235;52.198;9.904;2023-04-15T01:46:18;100074.09;;;7.07;89.76
16255;BME280;8235;52.198;9.904;2023-04-15T01:48:45;100068.81;;;7.07;89.79
16255;BME280;8235;52.198;9.904;2023-04-15T01:51:11;100065.31;;;7.06;89.66
16255;BME280;8235;52.198;9.904;2023-04-15T01:53:38;100061.81;;;7.06;89.87
16255;BME280;8235;52.198;9.904;2023-04-15T01:56:05;100066.25;;;7.05;89.98
16255;BME280;8235;52.198;9.904;2023-04-15T01:58:32;100056.50;;;7.06;90.32
16255;BME280;8235;52.198;9.904;2023-04-15T02:01:00;100059.16;;;7.06;90.38
16255;BME280;8235;52.198;9.904;2023-04-15T02:03:27;100057.34;;;7.06;90.06
16255;BME280;8235;52.198;9.904;2023-04-15T02:05:53;100059.25;;;7.04;90.37
16255;BME280;8235;52.198;9.904;2023-04-15T02:08:20;100060.94;;;7.05;90.45
16255;BME280;8235;52.198;9.904;2023-04-15T02:10:47;100062.66;;;7.06;90.78
16255;BME280;8235;52.198;9.904;2023-04-15T02:13:13;100058.22;;;7.07;90.59
16255;BME280;8235;52.198;9.904;2023-04-15T02:15:46;100054.72;;;7.06;90.89
16255;BME280;8235;52.198;9.904;2023-04-15T02:18:13;100058.22;;;7.07;90.82
16255;BME280;8235;52.198;9.904;2023-04-15T02:20:40;100051.13;;;7.07;90.53
16255;BME280;8235;52.198;9.904;2023-04-15T02:23:07;100050.28;;;7.07;91.19
16255;BME280;8235;52.198;9.904;2023-04-15T02:25:35;100048.47;;;7.07;91.35
16255;BME280;8235;52.198;9.904;2023-04-15T02:28:03;100042.25;;;7.08;90.88
16255;BME280;8235;52.198;9.904;2023-04-15T02:30:30;100048.38;;;7.09;91.19
16255;BME280;8235;52.198;9.904;2023-04-15T02:32:56;100061.63;;;7.09;91.02
16255;BME280;8235;52.198;9.904;2023-04-15T02:35:24;100054.44;;;7.11;91.27
16255;BME280;8235;52.198;9.904;2023-04-15T02:37:51;100057.94;;;7.11;91.66
16255;BME280;8235;52.198;9.904;2023-04-15T02:40:17;100061.47;;;7.12;91.32
16255;BME280;8235;52.198;9.904;2023-04-15T02:42:44;100063.16;;;7.13;91.48
16255;BME280;8235;52.198;9.904;2023-04-15T02:45:11;100057.78;;;7.14;91.91
16255;BME280;8235;52.198;9.904;2023-04-15T02:47:37;100056.06;;;7.13;91.97
16255;BME280;8235;52.198;9.904;2023-04-15T02:50:07;100064.00;;;7.13;92.22
16255;BME280;8235;52.198;9.904;2023-04-15T02:52:35;100062.22;;;7.14;91.61
16255;BME280;8235;52.198;9.904;2023-04-15T02:55:01;100061.38;;;7.13;92.27
16255;BME280;8235;52.198;9.904;2023-04-15T02:57:29;100069.31;;;7.13;92.03
16255;BME280;8235;52.198;9.904;2023-04-15T02:59:56;100068.38;;;7.14;91.67
16255;BME280;8235;52.198;9.904;2023-04-15T03:02:22;100068.28;;;7.16;92.12
16255;BME280;8235;52.198;9.904;2023-04-15T03:04:49;100066.38;;;7.18;92.51
16255;BME280;8235;52.198;9.904;2023-04-15T03:07:16;100070.72;;;7.19;92.57
16255;BME280;8235;52.198;9.904;2023-04-15T03:09:44;100073.38;;;7.19;92.43
16255;BME280;8235;52.198;9.904;2023-04-15T03:12:12;100071.59;;;7.19;92.20
16255;BME280;8235;52.198;9.904;2023-04-15T03:14:38;100062.78;;;7.19;92.59
16255;BME280;8235;52.198;9.904;2023-04-15T03:17:04;100063.63;;;7.19;92.96
16255;BME280;8235;52.198;9.904;2023-04-15T03:19:31;100068.94;;;7.19;92.92
16255;BME280;8235;52.198;9.904;2023-04-15T03:21:57;100065.34;;;7.20;92.41
16255;BME280;8235;52.198;9.904;2023-04-15T03:24:25;100066.19;;;7.21;92.88
16255;BME280;8235;52.198;9.904;2023-04-15T03:26:54;100066.19;;;7.21;92.89
16255;BME280;8235;52.198;9.904;2023-04-15T03:29:22;100062.59;;;7.22;92.66
16255;BME280;8235;52.198;9.904;2023-04-15T03:31:48;100066.19;;;7.21;93.15
16255;BME280;8235;52.198;9.904;2023-04-15T03:34:15;100060.91;;;7.21;93.32
16255;BME280;8235;52.198;9.904;2023-04-15T03:36:41;100055.59;;;7.21;93.33
16255;BME280;8235;52.198;9.904;2023-04-15T03:39:08;100052.00;;;7.22;93.83
16255;BME280;8235;52.198;9.904;2023-04-15T03:41:34;100054.66;;;7.22;93.93
16255;BME280;8235;52.198;9.904;2023-04-15T03:44:02;100047.56;;;7.22;94.63
16255;BME280;8235;52.198;9.904;2023-04-15T03:46:28;100051.06;;;7.23;94.01
16255;BME280;8235;52.198;9.904;2023-04-15T03:48:55;100053.72;;;7.23;94.91
16255;BME280;8235;52.198;9.904;2023-04-15T03:51:21;100059.03;;;7.23;94.42
16255;BME280;8235;52.198;9.904;2023-04-15T03:53:48;100055.34;;;7.25;94.39
16255;BME280;8235;52.198;9.904;2023-04-15T03:56:14;100058.00;;;7.25;95.23
16255;BME280;8235;52.198;9.904;2023-04-15T03:58:41;100063.47;;;7.22;95.47
16255;BME280;8235;52.198;9.904;2023-04-15T04:01:09;100065.34;;;7.20;94.96
16255;BME280;8235;52.198;9.904;2023-04-15T04:03:35;100065.53;;;7.17;95.79
16255;BME280;8235;52.198;9.904;2023-04-15T04:06:02;100065.53;;;7.17;95.50
16255;BME280;8235;52.198;9.904;2023-04-15T04:08:29;100068.28;;;7.16;95.49
16255;BME280;8235;52.198;9.904;2023-04-15T04:10:55;100062.22;;;7.14;96.09
16255;BME280;8235;52.198;9.904;2023-04-15T04:13:22;100065.91;;;7.11;95.60
16255;BME280;8235;52.198;9.904;2023-04-15T04:15:48;100064.28;;;7.09;96.49
16255;BME280;8235;52.198;9.904;2023-04-15T04:18:16;100062.75;;;7.05;95.62
16255;BME280;8235;52.198;9.904;2023-04-15T04:20:42;100067.28;;;7.03;96.28
16255;BME280;8235;52.198;9.904;2023-04-15T04:23:09;100070.84;;;7.02;96.47
16255;BME280;8235;52.198;9.904;2023-04-15T04:25:35;100064.72;;;7.01;96.40
16255;BME280;8235;52.198;9.904;2023-04-15T04:28:02;100064.78;;;7.00;96.77
16255;BME280;8235;52.198;9.904;2023-04-15T04:30:29;100062.16;;;7.00;97.44
16255;BME280;8235;52.198;9.904;2023-04-15T04:32:55;100063.84;;;7.01;97.11
16255;BME280;8235;52.198;9.904;2023-04-15T04:35:23;100067.44;;;7.00;97.68
16255;BME280;8235;52.198;9.904;2023-04-15T04:37:49;100067.44;;;7.00;97.52
16255;BME280;8235;52.198;9.904;2023-04-15T04:40:16;100065.75;;;6.99;97.82
16255;BME280;8235;52.198;9.904;2023-04-15T04:42:43;100063.22;;;6.97;97.87
16255;BME280;8235;52.198;9.904;2023-04-15T04:45:10;100060.56;;;6.97;98.52
16255;BME280;8235;52.198;9.904;2023-04-15T04:47:36;100067.66;;;6.96;98.12
16255;BME280;8235;52.198;9.904;2023-04-15T04:50:03;100060.66;;;6.95;98.36
16255;BME280;8235;52.198;9.904;2023-04-15T04:52:31;100058.94;;;6.94;98.29
16255;BME280;8235;52.198;9.904;2023-04-15T04:54:58;100056.28;;;6.94;98.83
16255;BME280;8235;52.198;9.904;2023-04-15T04:57:24;100062.53;;;6.93;98.65
16255;BME280;8235;52.198;9.904;2023-04-15T04:59:50;100061.75;;;6.91;98.79
16255;BME280;8235;52.198;9.904;2023-04-15T05:02:17;100058.34;;;6.89;98.95
16255;BME280;8235;52.198;9.904;2023-04-15T05:04:43;100057.56;;;6.87;99.00
16255;BME280;8235;52.198;9.904;2023-04-15T05:07:10;100062.94;;;6.86;100.00
16255;BME280;8235;52.198;9.904;2023-04-15T05:09:37;100059.44;;;6.85;100.00
16255;BME280;8235;52.198;9.904;2023-04-15T05:12:04;100060.47;;;6.83;100.00
16255;BME280;8235;52.198;9.904;2023-04-15T05:14:31;100064.19;;;6.80;100.00
16255;BME280;8235;52.198;9.904;2023-04-15T05:16:58;100067.75;;;6.79;99.98
16255;BME280;8235;52.198;9.904;2023-04-15T05:19:24;100066.06;;;6.78;100.00
16255;BME280;8235;52.198;9.904;2023-04-15T05:21:51;100070.50;;;6.78;100.00
16255;BME280;8235;52.198;9.904;2023-04-15T05:24:17;100069.63;;;6.77;100.00
16255;BME280;8235;52.198;9.904;2023-04-15T05:26:45;100071.44;;;6.77;100.00
16255;BME280;8235;52.198;9.904;2023-04-15T05:29:12;100068.00;;;6.75;100.00
16255;BME280;8235;52.198;9.904;2023-04-15T05:31:38;100061.00;;;6.74;100.00
16255;BME280;8235;52.198;9.904;2023-04-15T05:34:05;100070.75;;;6.73;100.00
16255;BME280;8235;52.198;9.904;2023-04-15T05:36:31;100058.44;;;6.72;100.00
16255;BME280;8235;52.198;9.904;2023-04-15T05:38:58;100069.88;;;6.73;100.00
16255;BME280;8235;52.198;9.904;2023-04-15T05:41:24;100062.88;;;6.72;100.00
16255;BME280;8235;52.198;9.904;2023-04-15T05:43:52;100062.88;;;6.72;100.00
16255;BME280;8235;52.198;9.904;2023-04-15T05:46:19;100057.69;;;6.70;100.00
16255;BME280;8235;52.198;9.904;2023-04-15T05:48:45;100062.03;;;6.71;100.00
16255;BME280;8235;52.198;9.904;2023-04-15T05:51:11;100062.03;;;6.71;100.00
16255;BME280;8235;52.198;9.904;2023-04-15T05:53:38;100068.25;;;6.70;100.00
16255;BME280;8235;52.198;9.904;2023-04-15T05:56:05;100066.47;;;6.71;100.00
16255;BME280;8235;52.198;9.904;2023-04-15T05:58:32;100060.31;;;6.70;100.00
16255;BME280;8235;52.198;9.904;2023-04-15T06:01:00;100060.31;;;6.70;100.00
16255;BME280;8235;52.198;9.904;2023-04-15T06:03:26;100060.25;;;6.72;100.00
16255;BME280;8235;52.198;9.904;2023-04-15T06:05:53;100057.50;;;6.73;100.00
16255;BME280;8235;52.198;9.904;2023-04-15T06:08:20;100057.44;;;6.75;100.00
16255;BME280;8235;52.198;9.904;2023-04-15T06:10:47;100050.44;;;6.74;100.00
16255;BME280;8235;52.198;9.904;2023-04-15T06:13:13;100060.94;;;6.75;100.00
16255;BME280;8235;52.198;9.904;2023-04-15T06:15:41;100065.28;;;6.76;100.00
16255;BME280;8235;52.198;9.904;2023-04-15T06:18:09;100068.69;;;6.78;100.00
16255;BME280;8235;52.198;9.904;2023-04-15T06:20:35;100064.34;;;6.77;100.00
16255;BME280;8235;52.198;9.904;2023-04-15T06:23:02;100063.41;;;6.78;100.00
16255;BME280;8235;52.198;9.904;2023-04-15T06:25:29;100061.63;;;6.79;100.00
16255;BME280;8235;52.198;9.904;2023-04-15T06:27:55;100066.91;;;6.79;100.00
16255;BME280;8235;52.198;9.904;2023-04-15T06:30:21;100064.34;;;6.77;100.00
16255;BME280;8235;52.198;9.904;2023-04-15T06:32:48;100070.56;;;6.76;100.00
16255;BME280;8235;52.198;9.904;2023-04-15T06:35:16;100074.94;;;6.77;100.00
16255;BME280;8235;52.198;9.904;2023-04-15T06:37:42;100068.78;;;6.77;100.00
16255;BME280;8235;52.198;9.904;2023-04-15T06:40:09;100067.00;;;6.77;100.00
16255;BME280;8235;52.198;9.904;2023-04-15T06:42:36;100060.84;;;6.77;100.00
16255;BME280;8235;52.198;9.904;2023-04-15T06:45:03;100067.00;;;6.77;100.00
16255;BME280;8235;52.198;9.904;2023-04-15T06:47:29;100064.34;;;6.77;100.00
16255;BME280;8235;52.198;9.904;2023-04-15T06:49:56;100063.41;;;6.78;100.00
16255;BME280;8235;52.198;9.904;2023-04-15T06:52:24;100071.34;;;6.78;100.00
16255;BME280;8235;52.198;9.904;2023-04-15T06:54:50;100074.84;;;6.79;100.00
16255;BME280;8235;52.198;9.904;2023-04-15T06:57:17;100079.28;;;6.78;100.00
16255;BME280;8235;52.198;9.904;2023-04-15T06:59:43;100074.75;;;6.80;100.00
16255;BME280;8235;52.198;9.904;2023-04-15T07:02:12;100075.69;;;6.79;100.00
16255;BME280;8235;52.198;9.904;2023-04-15T07:04:38;100070.41;;;6.79;100.00
16255;BME280;8235;52.198;9.904;2023-04-15T07:07:05;100076.56;;;6.80;100.00
16255;BME280;8235;52.198;9.904;2023-04-15T07:09:33;100076.56;;;6.80;100.00
16255;BME280;8235;52.198;9.904;2023-04-15T07:12:00;100077.41;;;6.80;100.00
16255;BME280;8235;52.198;9.904;2023-04-15T07:14:26;100090.53;;;6.82;100.00
16255;BME280;8235;52.198;9.904;2023-04-15T07:16:53;100092.16;;;6.84;100.00
16255;BME280;8235;52.198;9.904;2023-04-15T07:19:20;100088.56;;;6.85;100.00
16255;BME280;8235;52.198;9.904;2023-04-15T07:21:48;100102.56;;;6.87;100.00
16255;BME280;8235;52.198;9.904;2023-04-15T07:24:15;100102.47;;;6.89;100.00
16255;BME280;8235;52.198;9.904;2023-04-15T07:26:45;100106.75;;;6.91;100.00
16255;BME280;8235;52.198;9.904;2023-04-15T07:29:11;100100.44;;;6.94;100.00
16255;BME280;8235;52.198;9.904;2023-04-15T07:31:39;100101.22;;;6.96;100.00
16255;BME280;8235;52.198;9.904;2023-04-15T07:34:06;100108.13;;;6.99;100.00
16255;BME280;8235;52.198;9.904;2023-04-15T07:36:32;100103.56;;;7.01;100.00
16255;BME280;8235;52.198;9.904;2023-04-15T07:38:59;100107.94;;;7.02;100.00
16255;BME280;8235;52.198;9.904;2023-04-15T07:41:28;100105.09;;;7.05;100.00
16255;BME280;8235;52.198;9.904;2023-04-15T07:43:56;100108.53;;;7.07;100.00
16255;BME280;8235;52.198;9.904;2023-04-15T07:46:22;100114.59;;;7.09;100.00
16255;BME280;8235;52.198;9.904;2023-04-15T07:48:51;100117.06;;;7.12;100.00
16255;BME280;8235;52.198;9.904;2023-04-15T07:51:18;100118.69;;;7.14;100.00
16255;BME280;8235;52.198;9.904;2023-04-15T07:53:45;100115.94;;;7.16;100.00
16255;BME280;8235;52.198;9.904;2023-04-15T07:56:11;100115.75;;;7.19;100.00
16255;BME280;8235;52.198;9.904;2023-04-15T07:58:38;100122.75;;;7.20;100.00
16255;BME280;8235;52.198;9.904;2023-04-15T08:01:05;100120.09;;;7.20;100.00
16255;BME280;8235;52.198;9.904;2023-04-15T08:03:32;100127.03;;;7.22;100.00
16255;BME280;8235;52.198;9.904;2023-04-15T08:05:59;100118.13;;;7.23;100.00
16255;BME280;8235;52.198;9.904;2023-04-15T08:08:25;100113.69;;;7.24;100.00
16255;BME280;8235;52.198;9.904;2023-04-15T08:10:52;100121.47;;;7.27;100.00
16255;BME280;8235;52.198;9.904;2023-04-15T08:13:19;100119.59;;;7.29;100.00
16255;BME280;8235;52.198;9.904;2023-04-15T08:15:52;100113.34;;;7.30;100.00
16255;BME280;8235;52.198;9.904;2023-04-15T08:18:20;100115.81;;;7.33;100.00
16255;BME280;8235;52.198;9.904;2023-04-15T08:20:46;100116.78;;;7.32;100.00
16255;BME280;8235;52.198;9.904;2023-04-15T08:23:13;100125.47;;;7.34;100.00
16255;BME280;8235;52.198;9.904;2023-04-15T08:25:40;100120.91;;;7.36;100.00
16255;BME280;8235;52.198;9.904;2023-04-15T08:28:07;100121.78;;;7.37;100.00
16255;BME280;8235;52.198;9.904;2023-04-15T08:30:34;100119.13;;;7.37;100.00
16255;BME280;8235;52.198;9.904;2023-04-15T08:33:00;100111.09;;;7.38;100.00
16255;BME280;8235;52.198;9.904;2023-04-15T08:35:29;100115.34;;;7.41;100.00
16255;BME280;8235;52.198;9.904;2023-04-15T08:37:55;100110.91;;;7.41;100.00
16255;BME280;8235;52.198;9.904;2023-04-15T08:40:25;100120.56;;;7.42;100.00
16255;BME280;8235;52.198;9.904;2023-04-15T08:43:00;100131.09;;;7.44;100.00
16255;BME280;8235;52.198;9.904;2023-04-15T08:45:28;100136.28;;;7.45;100.00
16255;BME280;8235;52.198;9.904;2023-04-15T08:47:55;100143.38;;;7.45;100.00
16255;BME280;8235;52.198;9.904;2023-04-15T08:50:23;100137.16;;;7.46;100.00
16255;BME280;8235;52.198;9.904;2023-04-15T08:52:54;100140.75;;;7.45;100.00
16255;BME280;8235;52.198;9.904;2023-04-15T08:55:21;100137.06;;;7.47;100.00
16255;BME280;8235;52.198;9.904;2023-04-15T08:57:49;100136.97;;;7.49;100.00
16255;BME280;8235;52.198;9.904;2023-04-15T09:00:16;100136.88;;;7.50;100.00
16255;BME280;8235;52.198;9.904;2023-04-15T09:02:43;100132.44;;;7.51;100.00
16255;BME280;8235;52.198;9.904;2023-04-15T09:05:10;100143.97;;;7.50;100.00
16255;BME280;8235;52.198;9.904;2023-04-15T09:07:37;100150.91;;;7.52;100.00
16255;BME280;8235;52.198;9.904;2023-04-15T09:10:06;100170.09;;;7.56;100.00
16255;BME280;8235;52.198;9.904;2023-04-15T09:12:33;100163.00;;;7.56;100.00
16255;BME280;8235;52.198;9.904;2023-04-15T09:15:00;100164.72;;;7.57;100.00
16255;BME280;8235;52.198;9.904;2023-04-15T09:17:27;100172.47;;;7.60;100.00
16255;BME280;8235;52.198;9.904;2023-04-15T09:20:07;100158.28;;;7.61;100.00
16255;BME280;8235;52.198;9.904;2023-04-15T09:22:34;100165.38;;;7.61;100.00
16255;BME280;8235;52.198;9.904;2023-04-15T09:25:01;100168.91;;;7.61;100.00
16255;BME280;8235;52.198;9.904;2023-04-15T09:27:29;100161.78;;;7.62;100.00
16255;BME280;8235;52.198;9.904;2023-04-15T09:29:55;100153.00;;;7.61;100.00
16255;BME280;8235;52.198;9.904;2023-04-15T09:32:22;100156.50;;;7.62;100.00
16255;BME280;8235;52.198;9.904;2023-04-15T09:34:49;100168.72;;;7.64;100.00
16255;BME280;8235;52.198;9.904;2023-04-15T09:37:15;100167.78;;;7.65;100.00
16255;BME280;8235;52.198;9.904;2023-04-15T09:39:46;100173.94;;;7.66;100.00
16255;BME280;8235;52.198;9.904;2023-04-15T09:42:14;100180.09;;;7.66;100.00
16255;BME280;8235;52.198;9.904;2023-04-15T09:44:43;100178.13;;;7.70;100.00
16255;BME280;8235;52.198;9.904;2023-04-15T09:47:26;100172.69;;;7.72;100.00
16255;BME280;8235;52.198;9.904;2023-04-15T09:49:54;100177.91;;;7.73;100.00
16255;BME280;8235;52.198;9.904;2023-04-15T09:52:21;100178.69;;;7.75;100.00
16255;BME280;8235;52.198;9.904;2023-04-15T09:54:52;100184.75;;;7.77;100.00
16255;BME280;8235;52.198;9.904;2023-04-15T09:57:18;100182.94;;;7.78;100.00
16255;BME280;8235;52.198;9.904;2023-04-15T09:59:47;100187.22;;;7.80;100.00
16255;BME280;8235;52.198;9.904;2023-04-15T10:02:14;100195.09;;;7.82;100.00
16255;BME280;8235;52.198;9.904;2023-04-15T10:04:43;100185.34;;;7.82;100.00
16255;BME280;8235;52.198;9.904;2023-04-15T10:07:11;100189.59;;;7.85;100.00
16255;BME280;8235;52.198;9.904;2023-04-15T10:09:38;100188.56;;;7.87;100.00
16255;BME280;8235;52.198;9.904;2023-04-15T10:12:05;100183.91;;;7.91;100.00
16255;BME280;8235;52.198;9.904;2023-04-15T10:14:33;100184.78;;;7.91;100.00
16255;BME280;8235;52.198;9.904;2023-04-15T10:17:03;100192.63;;;7.93;100.00
16255;BME280;8235;52.198;9.904;2023-04-15T10:19:32;100186.31;;;7.95;100.00
16255;BME280;8235;52.198;9.904;2023-04-15T10:21:59;100185.44;;;7.95;100.00
16255;BME280;8235;52.198;9.904;2023-04-15T10:24:27;100187.91;;;7.98;100.00
16255;BME280;8235;52.198;9.904;2023-04-15T10:26:53;100191.34;;;8.00;100.00
16255;BME280;8235;52.198;9.904;2023-04-15T10:29:22;100188.50;;;8.03;100.00
16255;BME280;8235;52.198;9.904;2023-04-15T10:31:50;100182.25;;;8.04;100.00
16255;BME280;8235;52.198;9.904;2023-04-15T10:34:20;100190.13;;;8.06;100.00
16255;BME280;8235;52.198;9.904;2023-04-15T10:36:48;100186.41;;;8.08;100.00
16255;BME280;8235;52.198;9.904;2023-04-15T10:39:42;100195.13;;;8.10;100.00
16255;BME280;8235;52.198;9.904;2023-04-15T10:42:10;100195.03;;;8.12;100.00
16255;BME280;8235;52.198;9.904;2023-04-15T10:44:37;100190.41;;;8.15;100.00
16255;BME280;8235;52.198;9.904;2023-04-15T10:47:09;100191.09;;;8.19;100.00
16255;BME280;8235;52.198;9.904;2023-04-15T10:49:44;100191.84;;;8.21;100.00
16255;BME280;8235;52.198;9.904;2023-04-15T10:52:11;100190.81;;;8.23;100.00
16255;BME280;8235;52.198;9.904;2023-04-15T10:54:37;100191.66;;;8.24;100.00
16255;BME280;8235;52.198;9.904;2023-04-15T10:57:12;100191.53;;;8.25;100.00
16255;BME280;8235;52.198;9.904;2023-04-15T11:02:44;100193.06;;;8.29;100.00
16255;BME280;8235;52.198;9.904;2023-04-15T11:05:13;100194.78;;;8.30;100.00
16255;BME280;8235;52.198;9.904;2023-04-15T11:07:46;100192.13;;;8.30;100.00
16255;BME280;8235;52.198;9.904;2023-04-15T11:13:20;100197.09;;;8.37;100.00
16255;BME280;8235;52.198;9.904;2023-04-15T11:15:48;100192.56;;;8.39;100.00
16255;BME280;8235;52.198;9.904;2023-04-15T11:18:17;100196.91;;;8.40;100.00
16255;BME280;8235;52.198;9.904;2023-04-15T11:20:47;100199.34;;;8.43;100.00
16255;BME280;8235;52.198;9.904;2023-04-15T11:23:16;100202.78;;;8.45;100.00
16255;BME280;8235;52.198;9.904;2023-04-15T11:25:43;100216.72;;;8.48;100.00
16255;BME280;8235;52.198;9.904;2023-04-15T11:28:10;100207.72;;;8.51;100.00
16255;BME280;8235;52.198;9.904;2023-04-15T11:30:38;100213.78;;;8.53;100.00
16255;BME280;8235;52.198;9.904;2023-04-15T11:33:07;100218.91;;;8.56;100.00
16255;BME280;8235;52.198;9.904;2023-04-15T11:35:34;100222.31;;;8.58;100.00
16255;BME280;8235;52.198;9.904;2023-04-15T11:38:03;100231.88;;;8.60;100.00
16255;BME280;8235;52.198;9.904;2023-04-15T11:40:30;100223.81;;;8.62;100.00
16255;BME280;8235;52.198;9.904;2023-04-15T11:43:03;100235.09;;;8.65;100.00
16255;BME280;8235;52.198;9.904;2023-04-15T11:45:30;100235.00;;;8.67;100.00
16255;BME280;8235;52.198;9.904;2023-04-15T11:48:04;100233.88;;;8.71;100.00
16255;BME280;8235;52.198;9.904;2023-04-15T11:50:31;100238.25;;;8.72;100.00
16255;BME280;8235;52.198;9.904;2023-04-15T11:53:00;100239.00;;;8.74;100.00
16255;BME280;8235;52.198;9.904;2023-04-15T11:55:29;100246.03;;;8.75;100.00
16255;BME280;8235;52.198;9.904;2023-04-15T11:58:07;100246.88;;;8.76;100.00
16255;BME280;8235;52.198;9.904;2023-04-15T12:00:34;100254.63;;;8.79;100.00
16255;BME280;8235;52.198;9.904;2023-04-15T12:03:11;100254.53;;;8.80;100.00
16255;BME280;8235;52.198;9.904;2023-04-15T12:06:05;100261.53;;;8.81;100.00
16255;BME280;8235;52.198;9.904;2023-04-15T12:09:02;100267.72;;;8.82;100.00
16255;BME280;8235;52.198;9.904;2023-04-15T12:11:32;100267.91;;;8.79;100.00
16255;BME280;8235;52.198;9.904;2023-04-15T12:14:04;100264.50;;;8.77;100.00
16255;BME280;8235;52.198;9.904;2023-04-15T12:16:33;100281.38;;;8.76;100.00
16255;BME280;8235;52.198;9.904;2023-04-15T12:19:03;100281.47;;;8.74;100.00
16255;BME280;8235;52.198;9.904;2023-04-15T12:21:33;100285.84;;;8.75;100.00
16255;BME280;8235;52.198;9.904;2023-04-15T12:24:02;100288.50;;;8.75;100.00
16255;BME280;8235;52.198;9.904;2023-04-15T12:26:33;100290.31;;;8.75;100.00
16255;BME280;8235;52.198;9.904;2023-04-15T12:29:00;100283.94;;;8.77;100.00
16255;BME280;8235;52.198;9.904;2023-04-15T12:31:26;100287.25;;;8.81;100.00
16255;BME280;8235;52.198;9.904;2023-04-15T12:33:54;100277.28;;;8.84;100.00
16255;BME280;8235;52.198;9.904;2023-04-15T12:36:20;100293.13;;;8.86;100.00
16255;BME280;8235;52.198;9.904;2023-04-15T12:38:47;100287.72;;;8.87;100.00
16255;BME280;8235;52.198;9.904;2023-04-15T12:41:13;100292.00;;;8.90;100.00
16255;BME280;8235;52.198;9.904;2023-04-15T12:43:43;100291.06;;;8.91;100.00
16255;BME280;8235;52.198;9.904;2023-04-15T12:46:09;100296.19;;;8.94;100.00
16255;BME280;8235;52.198;9.904;2023-04-15T12:48:36;100298.75;;;8.95;100.00
16255;BME280;8235;52.198;9.904;2023-04-15T12:51:02;100299.47;;;8.97;100.00
16255;BME280;8235;52.198;9.904;2023-04-15T12:53:29;100308.22;;;8.99;100.00
16255;BME280;8235;52.198;9.904;2023-04-15T12:55:55;100311.81;;;8.98;100.00
16255;BME280;8235;52.198;9.904;2023-04-15T12:58:22;100315.22;;;9.00;100.00
16255;BME280;8235;52.198;9.904;2023-04-15T13:00:50;100314.19;;;9.03;100.00
16255;BME280;8235;52.198;9.904;2023-04-15T13:03:16;100316.75;;;9.04;100.00
16255;BME280;8235;52.198;9.904;2023-04-15T13:05:42;100326.44;;;9.05;100.00
16255;BME280;8235;52.198;9.904;2023-04-15T13:08:09;100330.69;;;9.08;100.00
16255;BME280;8235;52.198;9.904;2023-04-15T13:10:36;100327.00;;;9.11;100.00
16255;BME280;8235;52.198;9.904;2023-04-15T13:13:03;100333.09;;;9.13;100.00